Time;durP1;ratioP1;P1;durP2;ratioP2;P2;SDS_P1;SDS_P2;PMS_P1;PMS_P2;Temp;Humidity;BMP_temperature;BMP_pressure;BME280_temperature;BME280_humidity;BME280_pressure;Samples;Min_cycle;Max_cycle;Signal;HPM_P1;HPM_P2
2022/09/06 00:01:38;;;;;;;8.85;4.75;;;12.80;99.90;;;;;;5011710;28;20742;-54
2022/09/06 00:04:04;;;;;;;9.65;4.35;;;12.80;99.90;;;;;;5011438;28;20030;-53
2022/09/06 00:06:30;;;;;;;11.60;4.35;;;12.80;99.90;;;;;;5011601;28;20032;-53
2022/09/06 00:08:55;;;;;;;11.32;4.32;;;12.80;99.90;;;;;;5011612;28;20026;-53
2022/09/06 00:11:21;;;;;;;10.85;4.43;;;12.80;99.90;;;;;;5011508;28;20105;-53
2022/09/06 00:13:47;;;;;;;12.23;4.20;;;12.70;99.90;;;;;;5011210;28;20029;-53
2022/09/06 00:16:18;;;;;;;11.32;4.68;;;12.70;99.90;;;;;;5011217;28;20473;-53
2022/09/06 00:18:44;;;;;;;11.70;4.20;;;12.70;99.90;;;;;;5011440;28;20028;-53
2022/09/06 00:21:21;;;;;;;8.97;3.80;;;12.70;99.90;;;;;;5011291;28;20486;-53
2022/09/06 00:23:46;;;;;;;10.25;4.15;;;12.60;99.90;;;;;;5011392;28;20072;-54
2022/09/06 00:26:12;;;;;;;10.30;4.15;;;12.60;99.90;;;;;;5011408;28;20029;-53
2022/09/06 00:28:38;;;;;;;10.02;3.92;;;12.60;99.90;;;;;;5010941;28;20026;-53
2022/09/06 00:31:24;;;;;;;7.40;3.30;;;12.60;99.90;;;;;;5011306;28;20040;-53
2022/09/06 00:33:50;;;;;;;9.60;3.58;;;12.60;99.90;;;;;;5010924;28;20026;-53
2022/09/06 00:36:17;;;;;;;9.15;3.97;;;12.60;99.90;;;;;;5011127;28;20554;-53
2022/09/06 00:38:42;;;;;;;10.32;4.15;;;12.60;99.90;;;;;;5010825;28;20527;-53
2022/09/06 00:41:11;;;;;;;12.50;4.05;;;12.60;99.90;;;;;;5011039;28;20034;-53
2022/09/06 00:43:38;;;;;;;7.57;3.58;;;12.50;99.90;;;;;;5011028;28;20026;-53
2022/09/06 00:46:06;;;;;;;12.02;3.80;;;12.50;99.90;;;;;;5010731;28;20049;-53
2022/09/06 00:48:32;;;;;;;7.03;3.42;;;12.50;99.90;;;;;;5010844;28;20038;-53
2022/09/06 00:51:03;;;;;;;8.43;4.10;;;12.50;99.90;;;;;;5010670;28;20116;-53
2022/09/06 00:53:30;;;;;;;7.72;3.30;;;12.50;99.90;;;;;;5010814;28;20545;-53
2022/09/06 00:55:56;;;;;;;8.70;3.70;;;12.60;99.90;;;;;;5010419;28;20466;-53
2022/09/06 00:58:23;;;;;;;8.90;2.97;;;12.60;99.90;;;;;;5010708;28;20029;-53
2022/09/06 01:00:49;;;;;;;9.80;3.72;;;12.50;99.90;;;;;;5010601;28;20038;-53
2022/09/06 01:03:15;;;;;;;8.23;3.08;;;12.40;99.90;;;;;;5010540;28;20057;-53
2022/09/06 01:05:53;;;;;;;9.57;3.45;;;12.40;99.90;;;;;;5010409;28;20033;-53
2022/09/06 01:08:48;;;;;;;8.18;3.85;;;12.40;99.90;;;;;;5010554;28;20033;-53
2022/09/06 01:11:51;;;;;;;5.90;2.92;;;12.30;99.90;;;;;;5010682;28;20030;-53
2022/09/06 01:14:53;;;;;;;9.90;3.53;;;12.20;99.90;;;;;;5010396;28;20034;-53
2022/09/06 01:17:37;;;;;;;9.20;3.80;;;12.10;99.90;;;;;;5010481;28;20030;-53
2022/09/06 01:20:20;;;;;;;8.55;3.58;;;12.20;99.90;;;;;;5010315;28;20022;-53
2022/09/06 01:23:23;;;;;;;9.00;3.60;;;12.20;99.90;;;;;;5010601;28;20030;-53
2022/09/06 01:26:21;;;;;;;9.55;4.05;;;12.20;99.90;;;;;;5009683;28;20040;-53
2022/09/06 01:28:49;;;;;;;9.13;3.30;;;12.20;99.90;;;;;;5010535;28;20056;-53
2022/09/06 01:31:30;;;;;;;9.68;3.25;;;12.20;99.90;;;;;;5010078;28;20041;-53
2022/09/06 01:34:05;;;;;;;11.05;4.43;;;12.20;99.90;;;;;;5010141;28;20094;-53
2022/09/06 01:36:47;;;;;;;6.38;3.08;;;12.20;99.90;;;;;;5010378;28;20030;-53
2022/09/06 01:39:26;;;;;;;7.18;2.60;;;12.20;99.90;;;;;;5009941;28;20077;-53
2022/09/06 01:41:53;;;;;;;11.00;3.65;;;12.20;99.90;;;;;;5010038;28;20421;-52
2022/09/06 01:44:21;;;;;;;16.27;4.90;;;12.20;99.90;;;;;;5009982;28;20404;-52
2022/09/06 01:47:16;;;;;;;8.35;3.83;;;12.20;99.90;;;;;;5010245;28;20030;-53
2022/09/06 01:50:04;;;;;;;7.07;2.85;;;11.90;99.90;;;;;;4991536;28;20034;-53
2022/09/06 01:52:38;;;;;;;;;;;12.00;99.90;;;;;;5004851;28;20078;-53
2022/09/06 01:55:28;;;;;;;5.15;2.58;;;11.90;99.90;;;;;;5009800;28;19917;-53
2022/09/06 01:58:02;;;;;;;14.93;3.38;;;11.90;99.90;;;;;;5009972;28;20102;-53
2022/09/06 02:00:28;;;;;;;7.68;3.13;;;11.80;99.90;;;;;;5009778;28;20046;-52
2022/09/06 02:03:19;;;;;;;9.25;3.15;;;11.70;99.90;;;;;;5009789;28;20037;-53
2022/09/06 02:05:50;;;;;;;8.82;3.30;;;11.70;99.90;;;;;;5009935;28;20037;-53
2022/09/06 02:08:28;;;;;;;8.88;3.50;;;11.60;99.90;;;;;;5009822;28;20044;-53
2022/09/06 02:11:02;;;;;;;14.93;3.08;;;11.50;99.90;;;;;;4991995;28;20018;-53
2022/09/06 02:13:37;;;;;;;15.27;3.70;;;11.50;99.90;;;;;;5009898;28;20053;-52
2022/09/06 02:16:05;;;;;;;10.20;4.05;;;11.40;99.90;;;;;;5009572;28;20513;-53
2022/09/06 02:18:40;;;;;;;14.57;4.95;;;11.40;99.90;;;;;;5009668;28;20040;-55
2022/09/06 02:21:09;;;;;;;11.65;4.88;;;11.40;99.90;;;;;;5009642;28;20033;-55
2022/09/06 02:23:39;;;;;;;11.90;5.82;;;11.40;99.90;;;;;;4991999;28;20022;-52
2022/09/06 02:26:23;;;;;;;11.50;4.68;;;11.30;99.90;;;;;;5009442;28;20026;-53
2022/09/06 02:28:49;;;;;;;10.13;5.10;;;11.50;99.90;;;;;;5009923;28;20034;-53
2022/09/06 02:31:23;;;;;;;9.75;4.68;;;11.40;99.90;;;;;;5009633;28;20029;-53
2022/09/06 02:33:50;;;;;;;10.40;5.03;;;11.40;99.90;;;;;;5009485;28;20535;-53
2022/09/06 02:36:17;;;;;;;10.65;6.00;;;11.30;99.90;;;;;;5009566;28;20030;-52
2022/09/06 02:38:44;;;;;;;14.38;7.50;;;11.20;99.90;;;;;;5013049;28;20045;-52
2022/09/06 02:41:12;;;;;;;18.60;7.18;;;11.20;99.90;;;;;;5013341;28;20099;-52
2022/09/06 02:43:39;;;;;;;13.73;7.30;;;11.10;99.90;;;;;;5013126;28;20094;-52
2022/09/06 02:46:04;;;;;;;16.67;6.75;;;11.20;99.90;;;;;;5012833;28;20505;-52
2022/09/06 02:48:30;;;;;;;18.45;6.35;;;11.10;99.90;;;;;;5013155;28;20034;-52
2022/09/06 02:50:56;;;;;;;11.93;5.57;;;11.00;99.90;;;;;;5013278;28;20033;-53
2022/09/06 02:53:21;;;;;;;12.70;5.63;;;11.00;99.90;;;;;;5012978;28;20424;-53
2022/09/06 02:55:47;;;;;;;16.67;6.03;;;11.00;99.90;;;;;;5012881;28;20044;-55
2022/09/06 02:58:14;;;;;;;15.38;4.93;;;11.10;99.90;;;;;;5012835;28;20033;-53
2022/09/06 03:00:40;;;;;;;12.13;4.10;;;11.00;99.90;;;;;;5012745;28;20057;-52
2022/09/06 03:03:06;;;;;;;12.07;5.10;;;11.00;99.90;;;;;;5012870;28;20548;-53
2022/09/06 03:05:32;;;;;;;6.75;4.13;;;11.00;99.90;;;;;;5012695;28;20540;-52
2022/09/06 03:07:58;;;;;;;11.50;4.07;;;10.90;99.90;;;;;;5012668;28;20466;-53
2022/09/06 03:10:25;;;;;;;10.43;4.07;;;10.90;99.90;;;;;;5012617;28;20033;-54
2022/09/06 03:12:51;;;;;;;8.93;3.92;;;10.90;99.90;;;;;;5012788;28;20026;-54
2022/09/06 03:15:18;;;;;;;9.50;3.30;;;11.00;99.90;;;;;;5012662;28;20080;-54
2022/09/06 03:17:43;;;;;;;11.70;3.30;;;11.00;99.90;;;;;;5012565;28;20025;-54
2022/09/06 03:20:10;;;;;;;14.25;3.15;;;11.00;99.90;;;;;;5012423;28;20273;-53
2022/09/06 03:22:38;;;;;;;12.68;3.47;;;11.10;99.90;;;;;;5012344;28;20061;-53
2022/09/06 03:25:04;;;;;;;11.77;3.35;;;11.10;99.90;;;;;;5012296;28;20037;-53
2022/09/06 03:27:31;;;;;;;13.68;3.58;;;11.00;99.90;;;;;;5012479;28;20022;-53
2022/09/06 03:29:56;;;;;;;9.10;3.20;;;10.90;99.90;;;;;;5012566;28;20061;-52
2022/09/06 03:32:22;;;;;;;11.43;2.90;;;10.90;99.90;;;;;;5012424;28;20041;-53
2022/09/06 03:34:48;;;;;;;9.57;3.10;;;10.90;99.90;;;;;;5012115;28;20026;-53
2022/09/06 03:37:13;;;;;;;9.48;2.55;;;11.00;99.90;;;;;;5012037;28;20083;-53
2022/09/06 03:39:39;;;;;;;8.43;3.60;;;10.90;99.90;;;;;;5011918;28;20069;-53
2022/09/06 03:42:05;;;;;;;9.98;4.10;;;11.00;99.90;;;;;;5012313;28;20032;-53
2022/09/06 03:44:31;;;;;;;12.90;3.58;;;11.00;99.90;;;;;;5011879;28;20367;-53
2022/09/06 03:46:57;;;;;;;15.38;3.55;;;10.80;99.90;;;;;;5012310;28;20145;-53
2022/09/06 03:49:23;;;;;;;8.70;4.00;;;10.70;99.90;;;;;;5011489;28;20029;-53
2022/09/06 03:51:49;;;;;;;11.55;4.38;;;10.60;99.90;;;;;;5011839;28;20378;-53
2022/09/06 03:54:14;;;;;;;7.88;3.17;;;10.60;99.90;;;;;;5011690;28;20037;-53
2022/09/06 03:56:40;;;;;;;12.00;3.50;;;10.60;99.90;;;;;;5011765;28;20034;-54
2022/09/06 03:59:06;;;;;;;8.48;3.03;;;10.60;99.90;;;;;;5011905;28;20026;-53
2022/09/06 04:01:31;;;;;;;13.82;3.70;;;10.70;99.90;;;;;;5011790;28;20036;-53
2022/09/06 04:03:57;;;;;;;7.50;3.65;;;10.70;99.90;;;;;;5011462;28;20030;-53
2022/09/06 04:06:23;;;;;;;12.60;3.97;;;10.70;99.90;;;;;;5011615;28;20121;-53
2022/09/06 04:08:49;;;;;;;9.20;3.80;;;10.60;99.90;;;;;;5011516;28;20109;-52
2022/09/06 04:11:14;;;;;;;10.77;3.42;;;10.60;99.90;;;;;;5011690;28;20025;-53
2022/09/06 04:13:40;;;;;;;9.32;4.43;;;10.60;99.90;;;;;;5011413;28;20033;-52
2022/09/06 04:16:06;;;;;;;7.28;3.90;;;10.50;99.90;;;;;;5011642;28;20117;-53
2022/09/06 04:18:32;;;;;;;14.82;5.25;;;10.50;99.90;;;;;;5011562;28;20017;-53
2022/09/06 04:20:58;;;;;;;11.02;4.30;;;10.50;99.90;;;;;;5011656;28;20030;-53
2022/09/06 04:23:25;;;;;;;7.95;4.03;;;10.50;99.90;;;;;;5011350;28;20088;-53
2022/09/06 04:25:54;;;;;;;12.23;4.60;;;10.40;99.90;;;;;;5011175;28;20830;-53
2022/09/06 04:28:20;;;;;;;10.80;4.05;;;10.40;99.90;;;;;;5011155;28;20026;-53
2022/09/06 04:31:12;;;;;;;10.02;3.42;;;10.30;99.90;;;;;;5011137;28;20033;-53
2022/09/06 04:33:38;;;;;;;7.03;3.00;;;10.20;99.90;;;;;;5009051;28;20034;-53
2022/09/06 04:36:07;;;;;;;8.52;3.80;;;10.30;99.90;;;;;;5011070;28;20087;-53
2022/09/06 04:38:41;;;;;;;9.52;3.72;;;10.30;99.90;;;;;;5010804;28;20399;-52
2022/09/06 04:41:08;;;;;;;10.70;4.13;;;10.30;99.90;;;;;;5011267;28;20060;-53
2022/09/06 04:43:34;;;;;;;7.63;3.30;;;10.30;99.90;;;;;;5011033;28;20029;-53
2022/09/06 04:46:20;;;;;;;6.85;3.10;;;10.40;99.90;;;;;;5010982;28;20030;-53
2022/09/06 04:48:47;;;;;;;6.40;3.45;;;10.40;99.90;;;;;;5010846;28;20026;-53
2022/09/06 04:51:13;;;;;;;8.30;3.40;;;10.50;99.90;;;;;;5010882;28;20038;-53
2022/09/06 04:53:39;;;;;;;12.18;3.20;;;10.40;99.90;;;;;;5011141;28;20050;-53
2022/09/06 04:56:05;;;;;;;7.97;3.25;;;10.40;99.90;;;;;;5010859;28;20127;-53
2022/09/06 04:58:30;;;;;;;7.60;2.78;;;10.50;99.90;;;;;;5011043;28;20037;-53
2022/09/06 05:00:56;;;;;;;7.07;3.28;;;10.60;99.90;;;;;;5009738;28;20030;-53
2022/09/06 05:03:22;;;;;;;12.88;3.47;;;10.60;99.90;;;;;;5010420;28;20034;-52
2022/09/06 05:05:47;;;;;;;6.70;3.70;;;10.70;99.90;;;;;;5010531;28;20382;-53
2022/09/06 05:08:14;;;;;;;8.88;3.75;;;10.80;99.90;;;;;;5010525;28;20083;-53
2022/09/06 05:10:39;;;;;;;9.20;3.30;;;10.90;99.90;;;;;;5010418;28;20048;-52
2022/09/06 05:13:05;;;;;;;11.43;3.63;;;11.00;99.90;;;;;;5010059;28;20030;-52
2022/09/06 05:15:32;;;;;;;10.43;3.55;;;11.10;99.90;;;;;;5010196;28;20041;-52
2022/09/06 05:18:03;;;;;;;5.93;2.95;;;11.20;99.90;;;;;;5009973;28;20033;-53
2022/09/06 05:20:28;;;;;;;8.15;3.42;;;11.30;99.90;;;;;;5010294;28;20107;-53
2022/09/06 05:22:54;;;;;;;10.82;3.40;;;11.40;99.90;;;;;;5010364;28;20568;-53
2022/09/06 05:25:20;;;;;;;8.82;4.20;;;11.50;99.90;;;;;;5009952;28;20611;-53
2022/09/06 05:27:45;;;;;;;9.52;3.95;;;11.70;99.90;;;;;;5009315;28;20113;-52
2022/09/06 05:30:12;;;;;;;11.30;3.97;;;11.80;99.90;;;;;;5008859;28;20026;-53
2022/09/06 05:32:37;;;;;;;10.63;4.28;;;12.00;99.90;;;;;;5008930;28;20014;-53
2022/09/06 05:35:03;;;;;;;10.20;3.30;;;12.10;99.90;;;;;;5008765;28;20100;-53
2022/09/06 05:37:29;;;;;;;9.50;3.38;;;12.20;99.90;;;;;;5009696;28;20029;-52
2022/09/06 05:39:55;;;;;;;8.48;3.17;;;12.30;99.90;;;;;;5009324;28;20402;-53
2022/09/06 05:42:21;;;;;;;9.57;3.33;;;12.40;99.90;;;;;;5009728;28;20425;-53
2022/09/06 05:44:46;;;;;;;8.40;3.00;;;12.50;99.90;;;;;;5010116;28;20026;-53
2022/09/06 05:47:12;;;;;;;13.25;3.35;;;12.60;99.90;;;;;;5010036;28;20053;-53
2022/09/06 05:49:38;;;;;;;12.20;3.42;;;12.80;99.90;;;;;;5009734;28;20481;-52
2022/09/06 05:52:04;;;;;;;11.68;3.90;;;12.80;99.90;;;;;;5010095;28;20036;-52
2022/09/06 05:54:29;;;;;;;8.50;3.58;;;12.90;99.90;;;;;;5009398;28;20453;-52
2022/09/06 05:56:55;;;;;;;20.42;3.58;;;13.00;99.90;;;;;;5009744;28;20436;-53
2022/09/06 05:59:20;;;;;;;5.97;2.92;;;13.00;99.90;;;;;;5009730;28;20474;-53
2022/09/06 06:01:48;;;;;;;6.45;3.20;;;13.00;99.90;;;;;;5009766;28;20030;-53
2022/09/06 06:04:14;;;;;;;10.45;3.30;;;13.10;99.90;;;;;;5008519;28;20109;-53
2022/09/06 06:06:40;;;;;;;9.40;3.13;;;13.20;99.90;;;;;;5008325;28;20109;-52
2022/09/06 06:09:06;;;;;;;11.13;3.60;;;13.20;99.90;;;;;;5009800;28;20065;-53
2022/09/06 06:11:31;;;;;;;7.38;3.55;;;13.30;99.90;;;;;;5010864;28;20101;-52
2022/09/06 06:14:00;;;;;;;12.80;3.25;;;13.30;99.90;;;;;;5012902;28;20077;-52
2022/09/06 06:16:26;;;;;;;19.80;3.50;;;13.30;99.90;;;;;;5012422;28;20069;-52
2022/09/06 06:18:52;;;;;;;5.90;2.97;;;13.50;99.90;;;;;;5012821;28;20076;-53
2022/09/06 06:21:22;;;;;;;8.68;3.45;;;13.50;99.90;;;;;;5012474;28;20029;-53
2022/09/06 06:23:56;;;;;;;8.20;2.75;;;13.50;99.90;;;;;;5013598;28;20335;-53
2022/09/06 06:26:23;;;;;;;12.55;3.08;;;13.60;99.90;;;;;;5012339;28;20026;-54
2022/09/06 06:28:50;;;;;;;7.60;3.25;;;13.60;99.90;;;;;;5013333;28;20044;-53
2022/09/06 06:31:16;;;;;;;6.30;2.83;;;13.70;99.90;;;;;;5013404;28;20037;-53
2022/09/06 06:33:43;;;;;;;6.47;3.15;;;13.70;99.90;;;;;;5012318;28;20030;-53
2022/09/06 06:36:14;;;;;;;6.23;2.90;;;13.80;99.90;;;;;;5012038;28;20038;-53
2022/09/06 06:38:41;;;;;;;10.77;3.50;;;13.80;99.90;;;;;;5012278;28;20123;-53
2022/09/06 06:41:09;;;;;;;8.25;2.80;;;13.90;99.90;;;;;;5012088;28;20034;-53
2022/09/06 06:43:37;;;;;;;;;;;13.90;99.90;;;;;;5012470;28;20557;-53
2022/09/06 06:46:14;;;;;;;16.20;4.13;;;14.00;99.90;;;;;;5012778;28;19909;-52
2022/09/06 06:48:40;;;;;;;11.13;3.30;;;14.10;99.90;;;;;;5013063;28;20045;-53
2022/09/06 06:51:07;;;;;;;9.70;3.37;;;14.20;99.90;;;;;;5013048;28;20053;-52
2022/09/06 06:53:34;;;;;;;10.65;3.55;;;14.30;99.90;;;;;;4995137;28;20037;-53
2022/09/06 06:56:00;;;;;;;10.65;3.22;;;14.40;99.90;;;;;;5012764;28;20141;-53
2022/09/06 06:58:25;;;;;;;10.77;3.22;;;14.50;99.90;;;;;;5012975;28;20105;-53
2022/09/06 07:00:51;;;;;;;7.70;3.30;;;14.60;99.90;;;;;;5013116;28;20049;-53
2022/09/06 07:03:17;;;;;;;13.15;4.15;;;14.60;99.90;;;;;;5012737;28;20081;-53
2022/09/06 07:05:44;;;;;;;10.50;3.60;;;14.70;99.90;;;;;;5012860;28;20077;-53
2022/09/06 07:08:10;;;;;;;12.25;4.13;;;14.80;99.90;;;;;;5012536;28;20025;-53
2022/09/06 07:10:36;;;;;;;13.20;4.22;;;14.80;99.90;;;;;;5012756;28;20052;-53
2022/09/06 07:13:02;;;;;;;13.15;3.47;;;14.90;99.90;;;;;;5012585;28;20105;-52
2022/09/06 07:15:27;;;;;;;11.38;3.42;;;14.90;99.90;;;;;;5012742;28;20057;-53
2022/09/06 07:17:56;;;;;;;9.23;3.60;;;14.90;99.90;;;;;;5012593;28;20026;-53
2022/09/06 07:20:25;;;;;;;9.82;3.60;;;15.00;99.90;;;;;;5012638;28;20105;-53
2022/09/06 07:23:04;;;;;;;10.45;3.58;;;15.00;99.90;;;;;;5011567;28;20025;-54
2022/09/06 07:25:31;;;;;;;11.15;3.97;;;15.00;99.90;;;;;;5012727;28;20033;-53
2022/09/06 07:28:05;;;;;;;10.00;3.57;;;15.00;99.90;;;;;;5012469;28;20208;-53
2022/09/06 07:30:35;;;;;;;7.75;3.35;;;15.00;99.90;;;;;;5012277;28;20037;-53
2022/09/06 07:33:04;;;;;;;15.32;3.75;;;15.10;99.90;;;;;;5012351;28;20117;-53
2022/09/06 07:35:31;;;;;;;6.60;3.05;;;15.10;99.90;;;;;;5012223;28;20040;-53
2022/09/06 07:37:58;;;;;;;14.50;4.15;;;15.10;99.90;;;;;;5012145;28;20022;-53
2022/09/06 07:40:26;;;;;;;19.23;3.80;;;15.10;99.90;;;;;;5012088;28;20068;-52
2022/09/06 07:42:55;;;;;;;9.00;3.80;;;15.10;99.90;;;;;;5012179;28;20433;-53
2022/09/06 07:45:21;;;;;;;9.90;2.85;;;15.20;99.90;;;;;;5012233;28;20088;-53
2022/09/06 07:47:54;;;;;;;8.98;3.38;;;15.20;99.90;;;;;;5012128;28;20453;-53
2022/09/06 07:50:22;;;;;;;7.82;4.05;;;15.10;99.90;;;;;;5057046;23;20060;-89
2022/09/06 07:52:47;;;;;;;10.77;3.25;;;15.00;99.90;;;;;;5007174;28;20121;-87
2022/09/06 07:55:13;;;;;;;11.25;4.63;;;15.00;99.90;;;;;;4984305;28;20068;-89
2022/09/06 07:57:39;;;;;;;10.30;3.65;;;15.00;99.90;;;;;;5000409;28;20023;-89
2022/09/06 08:00:05;;;;;;;11.05;3.97;;;15.00;99.90;;;;;;5000660;28;20034;-88
2022/09/06 08:02:31;;;;;;;8.95;3.75;;;15.00;99.90;;;;;;4985025;28;20471;-89
2022/09/06 08:04:56;;;;;;;13.27;4.72;;;15.00;99.90;;;;;;4978749;28;20023;-90
2022/09/06 08:07:23;;;;;;;9.57;3.92;;;15.10;99.90;;;;;;4979970;28;20093;-88
2022/09/06 08:09:50;;;;;;;12.95;3.47;;;15.10;99.90;;;;;;5001174;28;20073;-89
2022/09/06 08:12:16;;;;;;;11.25;3.80;;;15.10;99.90;;;;;;4995603;28;20026;-86
2022/09/06 08:14:42;;;;;;;12.23;3.88;;;15.20;99.90;;;;;;4976858;28;20042;-90
2022/09/06 08:17:07;;;;;;;9.35;3.08;;;15.30;99.90;;;;;;4976986;28;20033;-88
2022/09/06 08:19:33;;;;;;;12.13;3.72;;;15.40;99.90;;;;;;4994380;28;20061;-90
2022/09/06 08:21:59;;;;;;;9.15;4.00;;;15.40;99.90;;;;;;4976827;28;20030;-86
2022/09/06 08:24:24;;;;;;;13.15;4.30;;;15.60;99.90;;;;;;4994390;28;20030;-89
2022/09/06 08:26:50;;;;;;;10.13;4.20;;;15.70;99.90;;;;;;4977595;28;20030;-88
2022/09/06 08:29:17;;;;;;;9.18;4.47;;;15.80;99.90;;;;;;4978060;28;20058;-88
2022/09/06 08:31:46;;;;;;;8.95;3.75;;;16.00;99.90;;;;;;4983774;28;20058;-87
2022/09/06 08:34:13;;;;;;;8.90;3.10;;;16.10;99.90;;;;;;4976708;28;20168;-91
2022/09/06 08:36:39;;;;;;;10.32;3.63;;;16.20;99.90;;;;;;4978011;28;20027;-88
2022/09/06 08:39:08;;;;;;;10.17;3.67;;;16.20;99.90;;;;;;4977655;28;20120;-90
2022/09/06 08:41:45;;;;;;;11.05;3.67;;;16.30;99.90;;;;;;4978385;28;20272;-87
2022/09/06 08:44:33;;;;;;;12.55;4.32;;;16.40;99.90;;;;;;4977196;28;20054;-90
2022/09/06 08:47:12;;;;;;;11.77;3.97;;;16.50;99.90;;;;;;4994689;28;20026;-89
2022/09/06 08:49:44;;;;;;;20.48;3.67;;;16.70;99.90;;;;;;4993917;28;20053;-88
2022/09/06 08:52:26;;;;;;;10.05;3.80;;;16.90;99.90;;;;;;4978446;28;20027;-91
2022/09/06 08:55:37;;;;;;;13.68;3.90;;;16.90;99.90;;;;;;4994783;28;20041;-88
2022/09/06 08:58:03;;;;;;;12.65;3.83;;;17.00;99.90;;;;;;4965754;28;20035;-86
2022/09/06 09:00:32;;;;;;;13.25;3.78;;;16.90;99.90;;;;;;4999598;28;20015;-89
2022/09/06 09:03:13;;;;;;;10.65;3.67;;;17.00;99.90;;;;;;4999177;28;20018;-89
2022/09/06 09:05:41;;;;;;;21.42;4.03;;;17.00;99.90;;;;;;4981375;28;20041;-89
2022/09/06 09:08:22;;;;;;;14.38;3.95;;;17.00;99.90;;;;;;4976572;28;20022;-88
2022/09/06 09:10:59;;;;;;;11.00;3.88;;;17.00;99.90;;;;;;4993820;28;20030;-88
2022/09/06 09:13:46;;;;;;;9.48;3.63;;;17.10;99.90;;;;;;4993968;28;20106;-90
2022/09/06 09:16:13;;;;;;;12.98;3.78;;;17.20;99.90;;;;;;4976244;28;20045;-90
2022/09/06 09:18:41;;;;;;;;;;;17.20;99.90;;;;;;4976854;28;20104;-91
2022/09/06 09:21:08;;;;;;;10.60;4.10;;;17.30;99.90;;;;;;4993297;28;20427;-90
2022/09/06 09:24:07;;;;;;;9.68;3.78;;;17.40;99.90;;;;;;4975699;28;20506;-93
2022/09/06 09:26:51;;;;;;;9.35;3.80;;;17.40;99.90;;;;;;4976048;28;20113;-91
2022/09/06 09:29:17;;;;;;;9.52;3.55;;;17.60;99.90;;;;;;4979770;28;20425;-89
2022/09/06 09:31:49;;;;;;;12.80;3.47;;;17.60;99.90;;;;;;5000068;28;20030;-90
2022/09/06 09:34:34;;;;;;;9.88;3.58;;;17.80;99.90;;;;;;4984686;28;20292;-90
2022/09/06 09:37:23;;;;;;;13.77;3.53;;;17.90;99.90;;;;;;4979711;28;20034;-88
2022/09/06 09:39:50;;;;;;;;;;;18.10;99.90;;;;;;4985115;28;20026;-86
2022/09/06 09:42:27;;;;;;;8.52;3.03;;;18.30;99.90;;;;;;4994365;28;19910;-93
2022/09/06 09:44:54;;;;;;;10.82;3.28;;;18.40;99.90;;;;;;4981268;28;20023;-95
2022/09/06 09:47:31;;;;;;;11.80;3.47;;;18.60;99.90;;;;;;4978032;28;20048;-91
2022/09/06 09:49:57;;;;;;;7.13;3.03;;;18.90;99.90;;;;;;4984966;28;20053;-92
2022/09/06 09:52:29;;;;;;;8.90;2.53;;;19.40;99.90;;;;;;5010972;28;20520;-94
2022/09/06 09:54:59;;;;;;;12.55;3.72;;;20.10;99.90;;;;;;4996174;28;20045;-90
2022/09/06 09:57:26;;;;;;;79.50;52.92;;;20.60;99.90;;;;;;5010679;28;20027;-90
2022/09/06 09:59:53;;;;;;;9.77;4.55;;;20.50;99.90;;;;;;4992265;28;20026;-88
2022/09/06 10:02:34;;;;;;;7.90;3.03;;;20.60;99.90;;;;;;5007984;28;20037;-87
2022/09/06 10:05:14;;;;;;;8.05;2.40;;;20.70;99.90;;;;;;4991751;28;20038;-88
2022/09/06 10:07:46;;;;;;;5.85;2.50;;;21.00;99.50;;;;;;4992606;28;20054;-89
2022/09/06 10:10:32;;;;;;;8.75;2.63;;;21.30;98.30;;;;;;4993120;28;20030;-90
2022/09/06 10:13:13;;;;;;;7.85;2.25;;;21.20;97.10;;;;;;4991276;28;20050;-89
2022/09/06 10:15:40;;;;;;;8.55;2.33;;;21.20;96.80;;;;;;5008444;28;20049;-88
2022/09/06 10:18:14;;;;;;;9.00;2.90;;;21.50;95.40;;;;;;4993177;28;20060;-90
2022/09/06 10:20:53;;;;;;;8.23;2.60;;;21.80;94.60;;;;;;4992746;28;20035;-90
2022/09/06 10:23:53;;;;;;;8.43;2.67;;;21.80;93.00;;;;;;5009393;28;20026;-91
2022/09/06 10:26:45;;;;;;;7.57;2.22;;;21.80;90.80;;;;;;4987482;28;20742;-91
2022/09/06 10:29:13;;;;;;;13.93;2.53;;;21.70;91.00;;;;;;5014651;28;20026;-89
2022/09/06 10:31:46;;;;;;;6.60;2.15;;;21.60;91.20;;;;;;5011159;28;20496;-89
2022/09/06 10:34:30;;;;;;;6.05;2.15;;;21.60;93.20;;;;;;5008088;28;20026;-90
2022/09/06 10:37:11;;;;;;;6.47;2.05;;;21.80;89.70;;;;;;4990779;28;20455;-89
2022/09/06 10:39:45;;;;;;;7.63;2.00;;;21.70;89.00;;;;;;4991180;28;20032;-89
2022/09/06 10:42:11;;;;;;;6.88;2.47;;;21.50;89.90;;;;;;4992309;28;20485;-89
2022/09/06 10:45:12;;;;;;;6.55;2.25;;;21.60;91.60;;;;;;4999343;28;20017;-88
2022/09/06 10:48:00;;;;;;;7.28;2.45;;;21.90;90.80;;;;;;4985975;28;20045;-88
2022/09/06 10:50:44;;;;;;;5.50;2.17;;;22.10;92.20;;;;;;5014362;28;20070;-89
2022/09/06 10:53:29;;;;;;;6.40;2.63;;;22.20;85.60;;;;;;4979310;28;20077;-89
2022/09/06 10:56:17;;;;;;;5.95;2.45;;;22.40;86.70;;;;;;4993254;28;20512;-90
2022/09/06 10:58:53;;;;;;;3.63;2.20;;;22.70;87.40;;;;;;4992865;28;20026;-89
2022/09/06 11:01:29;;;;;;;7.47;2.05;;;23.10;75.80;;;;;;4994966;28;20034;-89
2022/09/06 11:03:58;;;;;;;7.03;2.60;;;22.80;82.30;;;;;;4995089;28;20026;-89
2022/09/06 11:06:31;;;;;;;6.97;1.98;;;23.30;78.90;;;;;;4996992;28;20041;-90
2022/09/06 11:09:38;;;;;;;4.55;2.17;;;23.10;81.90;;;;;;4995959;28;20033;-90
2022/09/06 11:12:26;;;;;;;7.18;2.17;;;23.40;77.80;;;;;;4982049;28;20034;-91
2022/09/06 11:14:52;;;;;;;4.30;1.85;;;24.10;79.40;;;;;;4995203;28;20026;-90
2022/09/06 11:17:52;;;;;;;8.10;2.35;;;24.00;74.00;;;;;;4995466;28;20129;-91
2022/09/06 11:20:36;;;;;;;7.63;1.88;;;24.00;76.40;;;;;;4979122;28;20033;-90
2022/09/06 11:23:24;;;;;;;8.68;1.90;;;24.60;72.80;;;;;;4978557;28;20080;-90
2022/09/06 11:26:12;;;;;;;3.78;1.30;;;24.60;69.10;;;;;;4987537;28;20093;-89
2022/09/06 11:29:00;;;;;;;4.78;1.67;;;24.50;63.80;;;;;;4999186;28;20594;-89
2022/09/06 11:31:32;;;;;;;3.72;1.60;;;24.20;64.20;;;;;;5000345;28;20443;-93
2022/09/06 11:34:04;;;;;;;3.55;1.60;;;24.10;65.70;;;;;;4982368;28;20117;-93
2022/09/06 11:36:44;;;;;;;3.88;1.92;;;23.90;64.30;;;;;;4980715;28;20041;-89
2022/09/06 11:39:10;;;;;;;2.95;1.55;;;23.40;64.40;;;;;;4979901;28;20106;-89
2022/09/06 11:41:42;;;;;;;106.20;94.63;;;23.50;72.10;;;;;;4977205;28;20038;-90
2022/09/06 11:44:09;;;;;;;5.40;2.40;;;23.30;73.50;;;;;;4993008;28;20026;-91
2022/09/06 11:46:35;;;;;;;9.43;1.73;;;23.90;74.00;;;;;;4997311;28;20378;-90
2022/09/06 11:49:27;;;;;;;13.75;2.20;;;24.30;76.00;;;;;;4979245;28;20026;-88
2022/09/06 11:51:53;;;;;;;6.00;2.15;;;24.60;71.60;;;;;;4976692;28;20386;-88
2022/09/06 11:54:20;;;;;;;5.75;2.00;;;24.80;71.60;;;;;;4979355;28;20022;-89
2022/09/06 11:56:55;;;;;;;5.13;1.70;;;25.10;69.30;;;;;;4984091;28;20022;-88
2022/09/06 11:59:28;;;;;;;6.18;1.77;;;24.90;68.20;;;;;;5003488;28;20050;-88
2022/09/06 12:02:25;;;;;;;13.85;2.95;;;25.10;67.60;;;;;;4984493;28;20026;-87
2022/09/06 12:05:02;;;;;;;10.02;2.60;;;25.20;65.00;;;;;;4996974;28;20026;-87
2022/09/06 12:07:30;;;;;;;8.87;2.50;;;24.70;61.60;;;;;;4979150;28;20078;-88
2022/09/06 12:10:03;;;;;;;5.30;1.50;;;24.50;65.90;;;;;;4978116;28;20117;-87
2022/09/06 12:16:20;;;;;;;6.40;2.00;;;24.30;65.60;;;;;;5104500;27;20445;-54
2022/09/06 12:18:45;;;;;;;6.68;1.67;;;24.40;65.80;;;;;;5104346;28;20116;-54
2022/09/06 12:21:38;;;;;;;5.22;2.00;;;24.30;65.60;;;;;;5103675;28;20418;-55
2022/09/06 12:24:27;;;;;;;4.60;2.17;;;24.30;67.10;;;;;;5105141;28;20039;-55
2022/09/06 12:27:11;;;;;;;7.85;2.38;;;24.40;65.40;;;;;;5118773;28;20048;-54
2022/09/06 12:29:36;;;;;;;6.32;2.22;;;24.70;64.90;;;;;;5103978;28;20016;-55
2022/09/06 12:32:04;;;;;;;7.35;2.33;;;24.60;62.40;;;;;;5104967;28;20492;-54
2022/09/06 12:34:33;;;;;;;5.85;2.25;;;24.40;63.40;;;;;;5104795;28;20028;-55
2022/09/06 12:37:06;;;;;;;5.65;2.17;;;24.40;65.20;;;;;;5105993;28;20042;-54
2022/09/06 12:39:33;;;;;;;3.80;2.03;;;24.20;64.40;;;;;;5103601;28;20110;-54
2022/09/06 12:42:11;;;;;;;11.95;2.33;;;24.10;67.10;;;;;;5105401;28;20028;-54
2022/09/06 12:44:44;;;;;;;4.97;1.95;;;23.90;66.80;;;;;;5105228;28;20034;-54
2022/09/06 12:47:25;;;;;;;4.88;1.80;;;23.70;68.90;;;;;;5106761;28;20032;-54
2022/09/06 12:50:17;;;;;;;5.63;2.15;;;23.70;66.20;;;;;;5106145;28;20028;-54
2022/09/06 12:53:15;;;;;;;8.27;2.05;;;23.50;66.80;;;;;;5106805;28;20024;-53
2022/09/06 12:55:42;;;;;;;5.15;1.88;;;23.30;69.90;;;;;;5105222;28;20574;-54
2022/09/06 12:58:10;;;;;;;7.30;2.60;;;23.20;70.10;;;;;;5106556;28;20057;-54
2022/09/06 13:00:50;;;;;;;9.63;2.60;;;23.10;70.40;;;;;;5106136;28;20016;-54
2022/09/06 13:03:35;;;;;;;12.80;2.70;;;22.80;69.60;;;;;;5106197;28;20769;-54
2022/09/06 13:06:04;;;;;;;7.22;2.85;;;22.70;72.80;;;;;;5106466;28;20034;-53
2022/09/06 13:08:35;;;;;;;14.40;2.33;;;22.60;72.10;;;;;;5104988;28;20485;-53
2022/09/06 13:11:04;;;;;;;6.05;2.20;;;22.50;72.10;;;;;;5103087;28;20672;-53